sensor_id;sensor_type;location;lat;lon;timestamp;temperature;humidity
488;DHT22;16586;48.976;9.584;2023-04-01T00:01:28;11.50;50.10
488;DHT22;16586;48.976;9.584;2023-04-01T00:03:55;11.50;49.50
488;DHT22;16586;48.976;9.584;2023-04-01T00:06:22;11.50;49.40
488;DHT22;16586;48.976;9.584;2023-04-01T00:08:49;11.50;49.30
488;DHT22;16586;48.976;9.584;2023-04-01T00:11:18;11.50;49.30
488;DHT22;16586;48.976;9.584;2023-04-01T00:13:45;11.30;49.50
488;DHT22;16586;48.976;9.584;2023-04-01T00:16:12;11.40;49.70
488;DHT22;16586;48.976;9.584;2023-04-01T00:18:39;11.30;49.50
488;DHT22;16586;48.976;9.584;2023-04-01T00:21:07;11.40;49.70
488;DHT22;16586;48.976;9.584;2023-04-01T00:23:36;11.60;49.80
488;DHT22;16586;48.976;9.584;2023-04-01T00:26:03;11.50;49.20
488;DHT22;16586;48.976;9.584;2023-04-01T00:28:34;11.40;49.50
488;DHT22;16586;48.976;9.584;2023-04-01T00:31:04;11.50;49.30
488;DHT22;16586;48.976;9.584;2023-04-01T00:33:36;11.40;49.90
488;DHT22;16586;48.976;9.584;2023-04-01T00:36:07;11.30;50.20
488;DHT22;16586;48.976;9.584;2023-04-01T00:38:35;11.30;49.90
488;DHT22;16586;48.976;9.584;2023-04-01T00:41:06;11.30;50.30
488;DHT22;16586;48.976;9.584;2023-04-01T00:43:34;11.40;50.40
488;DHT22;16586;48.976;9.584;2023-04-01T00:46:01;11.40;50.20
488;DHT22;16586;48.976;9.584;2023-04-01T00:48:30;11.50;50.00
488;DHT22;16586;48.976;9.584;2023-04-01T00:51:00;11.60;49.30
488;DHT22;16586;48.976;9.584;2023-04-01T00:53:30;11.50;49.70
488;DHT22;16586;48.976;9.584;2023-04-01T00:56:01;11.30;50.30
488;DHT22;16586;48.976;9.584;2023-04-01T00:58:31;11.40;50.20
488;DHT22;16586;48.976;9.584;2023-04-01T01:01:03;11.40;50.20
488;DHT22;16586;48.976;9.584;2023-04-01T01:03:32;11.40;50.20
488;DHT22;16586;48.976;9.584;2023-04-01T01:06:14;11.50;50.50
488;DHT22;16586;48.976;9.584;2023-04-01T01:09:03;11.50;50.10
488;DHT22;16586;48.976;9.584;2023-04-01T01:11:36;11.60;50.20
488;DHT22;16586;48.976;9.584;2023-04-01T01:14:12;11.40;50.20
488;DHT22;16586;48.976;9.584;2023-04-01T01:16:51;11.30;50.90
488;DHT22;16586;48.976;9.584;2023-04-01T01:19:40;11.30;50.70
488;DHT22;16586;48.976;9.584;2023-04-01T01:22:33;11.30;51.20
488;DHT22;16586;48.976;9.584;2023-04-01T01:25:17;11.30;51.40
488;DHT22;16586;48.976;9.584;2023-04-01T01:27:54;11.50;50.50
488;DHT22;16586;48.976;9.584;2023-04-01T01:30:37;11.60;50.40
488;DHT22;16586;48.976;9.584;2023-04-01T01:33:32;11.60;50.60
488;DHT22;16586;48.976;9.584;2023-04-01T01:36:04;11.60;50.90
488;DHT22;16586;48.976;9.584;2023-04-01T01:38:34;11.70;50.40
488;DHT22;16586;48.976;9.584;2023-04-01T01:41:03;11.60;50.00
488;DHT22;16586;48.976;9.584;2023-04-01T01:43:33;11.70;49.90
488;DHT22;16586;48.976;9.584;2023-04-01T01:46:04;11.60;50.20
488;DHT22;16586;48.976;9.584;2023-04-01T01:48:34;11.60;50.40
488;DHT22;16586;48.976;9.584;2023-04-01T01:51:02;11.50;50.50
488;DHT22;16586;48.976;9.584;2023-04-01T01:53:30;11.50;50.50
488;DHT22;16586;48.976;9.584;2023-04-01T01:55:56;11.40;51.00
488;DHT22;16586;48.976;9.584;2023-04-01T01:58:26;11.40;51.20
488;DHT22;16586;48.976;9.584;2023-04-01T02:00:57;11.30;51.30
488;DHT22;16586;48.976;9.584;2023-04-01T02:03:27;11.30;51.70
488;DHT22;16586;48.976;9.584;2023-04-01T02:05:57;11.30;51.20
488;DHT22;16586;48.976;9.584;2023-04-01T02:08:30;11.20;51.30
488;DHT22;16586;48.976;9.584;2023-04-01T02:11:02;11.30;51.50
488;DHT22;16586;48.976;9.584;2023-04-01T02:13:32;11.30;51.40
488;DHT22;16586;48.976;9.584;2023-04-01T02:16:05;11.30;51.50
488;DHT22;16586;48.976;9.584;2023-04-01T02:18:33;11.50;53.70
488;DHT22;16586;48.976;9.584;2023-04-01T02:21:03;11.50;52.80
488;DHT22;16586;48.976;9.584;2023-04-01T02:23:33;11.30;52.60
488;DHT22;16586;48.976;9.584;2023-04-01T02:26:01;11.40;55.20
488;DHT22;16586;48.976;9.584;2023-04-01T02:28:28;11.40;54.40
488;DHT22;16586;48.976;9.584;2023-04-01T02:30:57;11.40;55.00
488;DHT22;16586;48.976;9.584;2023-04-01T02:33:27;11.30;55.80
488;DHT22;16586;48.976;9.584;2023-04-01T02:35:54;11.10;55.60
488;DHT22;16586;48.976;9.584;2023-04-01T02:38:21;11.00;55.90
488;DHT22;16586;48.976;9.584;2023-04-01T02:40:51;11.00;55.90
488;DHT22;16586;48.976;9.584;2023-04-01T02:43:18;10.90;55.60
488;DHT22;16586;48.976;9.584;2023-04-01T02:45:46;10.90;56.00
488;DHT22;16586;48.976;9.584;2023-04-01T02:48:13;10.90;56.00
488;DHT22;16586;48.976;9.584;2023-04-01T02:50:40;10.80;56.00
488;DHT22;16586;48.976;9.584;2023-04-01T02:53:07;10.70;56.00
488;DHT22;16586;48.976;9.584;2023-04-01T02:55:34;10.80;57.00
488;DHT22;16586;48.976;9.584;2023-04-01T02:58:02;11.00;55.60
488;DHT22;16586;48.976;9.584;2023-04-01T03:00:29;10.80;54.80
488;DHT22;16586;48.976;9.584;2023-04-01T03:02:56;10.90;55.50
488;DHT22;16586;48.976;9.584;2023-04-01T03:05:23;10.90;55.70
488;DHT22;16586;48.976;9.584;2023-04-01T03:07:50;11.00;54.70
488;DHT22;16586;48.976;9.584;2023-04-01T03:10:17;11.00;54.80
488;DHT22;16586;48.976;9.584;2023-04-01T03:12:43;11.00;54.50
488;DHT22;16586;48.976;9.584;2023-04-01T03:15:13;11.10;54.20
488;DHT22;16586;48.976;9.584;2023-04-01T03:17:41;11.00;53.50
488;DHT22;16586;48.976;9.584;2023-04-01T03:20:08;10.90;54.30
488;DHT22;16586;48.976;9.584;2023-04-01T03:22:36;10.80;55.70
488;DHT22;16586;48.976;9.584;2023-04-01T03:25:04;10.90;55.80
488;DHT22;16586;48.976;9.584;2023-04-01T03:27:33;10.90;55.40
488;DHT22;16586;48.976;9.584;2023-04-01T03:29:59;10.90;56.10
488;DHT22;16586;48.976;9.584;2023-04-01T03:32:27;11.00;56.10
488;DHT22;16586;48.976;9.584;2023-04-01T03:34:54;11.00;55.90
488;DHT22;16586;48.976;9.584;2023-04-01T03:37:21;10.90;54.50
488;DHT22;16586;48.976;9.584;2023-04-01T03:39:47;10.90;54.60
488;DHT22;16586;48.976;9.584;2023-04-01T03:42:15;10.90;54.40
488;DHT22;16586;48.976;9.584;2023-04-01T03:44:41;11.00;53.70
488;DHT22;16586;48.976;9.584;2023-04-01T03:47:08;10.90;53.10
488;DHT22;16586;48.976;9.584;2023-04-01T03:49:37;10.90;53.80
488;DHT22;16586;48.976;9.584;2023-04-01T03:52:03;10.80;53.50
488;DHT22;16586;48.976;9.584;2023-04-01T03:54:30;10.80;53.90
488;DHT22;16586;48.976;9.584;2023-04-01T03:56:57;10.80;53.50
488;DHT22;16586;48.976;9.584;2023-04-01T03:59:24;10.90;52.60
488;DHT22;16586;48.976;9.584;2023-04-01T04:01:53;10.90;51.80
488;DHT22;16586;48.976;9.584;2023-04-01T04:04:20;10.80;52.50
488;DHT22;16586;48.976;9.584;2023-04-01T04:06:48;10.90;52.00
488;DHT22;16586;48.976;9.584;2023-04-01T04:09:16;11.00;51.50
488;DHT22;16586;48.976;9.584;2023-04-01T04:11:42;10.80;51.40
488;DHT22;16586;48.976;9.584;2023-04-01T04:14:09;10.90;52.10
488;DHT22;16586;48.976;9.584;2023-04-01T04:16:36;10.90;51.50
488;DHT22;16586;48.976;9.584;2023-04-01T04:19:04;10.80;51.40
488;DHT22;16586;48.976;9.584;2023-04-01T04:21:30;10.80;51.40
488;DHT22;16586;48.976;9.584;2023-04-01T04:24:00;10.80;51.70
488;DHT22;16586;48.976;9.584;2023-04-01T04:26:27;10.80;51.40
488;DHT22;16586;48.976;9.584;2023-04-01T04:28:54;10.90;51.40
488;DHT22;16586;48.976;9.584;2023-04-01T04:31:23;10.80;51.20
488;DHT22;16586;48.976;9.584;2023-04-01T04:33:50;10.90;51.40
488;DHT22;16586;48.976;9.584;2023-04-01T04:36:17;10.90;51.40
488;DHT22;16586;48.976;9.584;2023-04-01T04:38:44;10.80;51.10
488;DHT22;16586;48.976;9.584;2023-04-01T04:41:13;10.80;50.50
488;DHT22;16586;48.976;9.584;2023-04-01T04:43:41;10.80;50.70
488;DHT22;16586;48.976;9.584;2023-04-01T04:46:08;10.90;50.70
488;DHT22;16586;48.976;9.584;2023-04-01T04:48:35;10.80;50.20
488;DHT22;16586;48.976;9.584;2023-04-01T04:51:02;10.80;50.00
488;DHT22;16586;48.976;9.584;2023-04-01T04:53:29;10.80;50.00
488;DHT22;16586;48.976;9.584;2023-04-01T04:55:56;10.80;50.00
488;DHT22;16586;48.976;9.584;2023-04-01T04:58:24;10.70;50.40
488;DHT22;16586;48.976;9.584;2023-04-01T05:00:51;10.60;50.10
488;DHT22;16586;48.976;9.584;2023-04-01T05:03:18;10.60;50.90
488;DHT22;16586;48.976;9.584;2023-04-01T05:05:50;10.80;50.40
488;DHT22;16586;48.976;9.584;2023-04-01T05:08:17;10.90;49.80
488;DHT22;16586;48.976;9.584;2023-04-01T05:10:44;10.70;50.00
488;DHT22;16586;48.976;9.584;2023-04-01T05:13:11;10.60;50.10
488;DHT22;16586;48.976;9.584;2023-04-01T05:15:39;10.50;50.70
488;DHT22;16586;48.976;9.584;2023-04-01T05:18:06;10.40;50.20
488;DHT22;16586;48.976;9.584;2023-04-01T05:20:32;10.30;50.80
488;DHT22;16586;48.976;9.584;2023-04-01T05:22:59;10.40;50.90
488;DHT22;16586;48.976;9.584;2023-04-01T05:25:26;10.50;51.10
488;DHT22;16586;48.976;9.584;2023-04-01T05:27:53;10.60;49.90
488;DHT22;16586;48.976;9.584;2023-04-01T05:30:20;10.60;50.20
488;DHT22;16586;48.976;9.584;2023-04-01T05:32:48;10.60;50.00
488;DHT22;16586;48.976;9.584;2023-04-01T05:35:15;10.60;50.00
488;DHT22;16586;48.976;9.584;2023-04-01T05:37:42;10.60;49.90
488;DHT22;16586;48.976;9.584;2023-04-01T05:40:09;10.60;50.30
488;DHT22;16586;48.976;9.584;2023-04-01T05:42:36;10.50;50.30
488;DHT22;16586;48.976;9.584;2023-04-01T05:45:04;10.50;51.00
488;DHT22;16586;48.976;9.584;2023-04-01T05:47:31;10.60;51.10
488;DHT22;16586;48.976;9.584;2023-04-01T05:49:59;10.80;50.20
488;DHT22;16586;48.976;9.584;2023-04-01T05:52:26;10.80;50.00
488;DHT22;16586;48.976;9.584;2023-04-01T05:54:52;10.90;49.70
488;DHT22;16586;48.976;9.584;2023-04-01T05:57:19;10.90;49.80
488;DHT22;16586;48.976;9.584;2023-04-01T05:59:46;10.90;49.40
488;DHT22;16586;48.976;9.584;2023-04-01T06:02:13;10.90;49.50
488;DHT22;16586;48.976;9.584;2023-04-01T06:04:42;10.80;50.40
488;DHT22;16586;48.976;9.584;2023-04-01T06:07:13;10.90;50.10
488;DHT22;16586;48.976;9.584;2023-04-01T06:09:40;10.90;49.90
488;DHT22;16586;48.976;9.584;2023-04-01T06:15:17;11.10;50.00
488;DHT22;16586;48.976;9.584;2023-04-01T06:17:56;11.20;49.00
488;DHT22;16586;48.976;9.584;2023-04-01T06:20:32;11.40;48.50
488;DHT22;16586;48.976;9.584;2023-04-01T06:23:12;11.30;48.70
488;DHT22;16586;48.976;9.584;2023-04-01T06:26:03;11.30;49.70
488;DHT22;16586;48.976;9.584;2023-04-01T06:29:18;11.30;48.70
488;DHT22;16586;48.976;9.584;2023-04-01T06:32:11;11.40;48.90
488;DHT22;16586;48.976;9.584;2023-04-01T06:35:02;11.40;48.20
488;DHT22;16586;48.976;9.584;2023-04-01T06:37:50;11.30;48.60
488;DHT22;16586;48.976;9.584;2023-04-01T06:40:44;11.40;48.40
488;DHT22;16586;48.976;9.584;2023-04-01T06:43:24;11.60;48.10
488;DHT22;16586;48.976;9.584;2023-04-01T06:46:00;11.70;47.80
488;DHT22;16586;48.976;9.584;2023-04-01T06:48:39;11.80;47.50
488;DHT22;16586;48.976;9.584;2023-04-01T06:51:18;11.80;47.40
488;DHT22;16586;48.976;9.584;2023-04-01T06:53:53;11.90;46.60
488;DHT22;16586;48.976;9.584;2023-04-01T06:56:25;11.90;46.80
488;DHT22;16586;48.976;9.584;2023-04-01T06:58:54;12.00;45.70
488;DHT22;16586;48.976;9.584;2023-04-01T07:01:27;11.90;45.90
488;DHT22;16586;48.976;9.584;2023-04-01T07:03:58;11.90;46.10
488;DHT22;16586;48.976;9.584;2023-04-01T07:06:31;12.00;46.90
488;DHT22;16586;48.976;9.584;2023-04-01T07:09:02;12.10;46.90
488;DHT22;16586;48.976;9.584;2023-04-01T07:11:34;12.00;46.70
488;DHT22;16586;48.976;9.584;2023-04-01T07:14:06;12.00;47.00
488;DHT22;16586;48.976;9.584;2023-04-01T07:16:41;11.90;48.00
488;DHT22;16586;48.976;9.584;2023-04-01T07:19:14;11.90;49.00
488;DHT22;16586;48.976;9.584;2023-04-01T07:21:46;11.90;49.10
488;DHT22;16586;48.976;9.584;2023-04-01T07:24:17;11.90;51.00
488;DHT22;16586;48.976;9.584;2023-04-01T07:26:52;12.00;51.40
488;DHT22;16586;48.976;9.584;2023-04-01T07:29:20;11.70;50.00
488;DHT22;16586;48.976;9.584;2023-04-01T07:32:04;11.50;50.60
488;DHT22;16586;48.976;9.584;2023-04-01T07:34:38;11.40;50.70
488;DHT22;16586;48.976;9.584;2023-04-01T07:37:12;11.20;52.50
488;DHT22;16586;48.976;9.584;2023-04-01T07:39:46;11.40;54.00
488;DHT22;16586;48.976;9.584;2023-04-01T07:42:25;11.40;54.10
488;DHT22;16586;48.976;9.584;2023-04-01T07:45:01;11.40;51.90
488;DHT22;16586;48.976;9.584;2023-04-01T07:47:41;11.20;52.80
488;DHT22;16586;48.976;9.584;2023-04-01T07:50:18;11.20;53.60
488;DHT22;16586;48.976;9.584;2023-04-01T07:52:56;11.30;55.90
488;DHT22;16586;48.976;9.584;2023-04-01T07:55:30;11.30;54.90
488;DHT22;16586;48.976;9.584;2023-04-01T07:58:06;11.40;54.60
488;DHT22;16586;48.976;9.584;2023-04-01T08:00:39;11.50;53.50
488;DHT22;16586;48.976;9.584;2023-04-01T08:03:20;11.40;53.80
488;DHT22;16586;48.976;9.584;2023-04-01T08:05:54;11.50;54.70
488;DHT22;16586;48.976;9.584;2023-04-01T08:08:29;11.40;54.40
488;DHT22;16586;48.976;9.584;2023-04-01T08:11:09;11.60;56.30
488;DHT22;16586;48.976;9.584;2023-04-01T08:13:40;11.60;55.80
488;DHT22;16586;48.976;9.584;2023-04-01T08:16:18;11.60;57.10
488;DHT22;16586;48.976;9.584;2023-04-01T08:18:53;11.50;56.10
488;DHT22;16586;48.976;9.584;2023-04-01T08:21:24;11.40;56.60
488;DHT22;16586;48.976;9.584;2023-04-01T08:23:53;11.30;58.20
488;DHT22;16586;48.976;9.584;2023-04-01T08:26:28;11.30;58.40
488;DHT22;16586;48.976;9.584;2023-04-01T08:29:01;11.20;57.90
488;DHT22;16586;48.976;9.584;2023-04-01T08:31:34;11.30;60.00
488;DHT22;16586;48.976;9.584;2023-04-01T08:34:03;11.40;58.80
488;DHT22;16586;48.976;9.584;2023-04-01T08:36:33;11.30;57.20
488;DHT22;16586;48.976;9.584;2023-04-01T08:39:04;11.20;58.00
488;DHT22;16586;48.976;9.584;2023-04-01T08:41:53;11.00;55.70
488;DHT22;16586;48.976;9.584;2023-04-01T08:44:47;10.90;56.20
488;DHT22;16586;48.976;9.584;2023-04-01T08:47:32;11.10;59.10
488;DHT22;16586;48.976;9.584;2023-04-01T08:50:24;11.20;58.20
488;DHT22;16586;48.976;9.584;2023-04-01T08:53:00;11.20;56.40
488;DHT22;16586;48.976;9.584;2023-04-01T08:55:45;11.30;58.80
488;DHT22;16586;48.976;9.584;2023-04-01T08:58:27;11.30;58.40
488;DHT22;16586;48.976;9.584;2023-04-01T09:01:11;11.20;58.40
488;DHT22;16586;48.976;9.584;2023-04-01T09:03:55;11.10;60.20
488;DHT22;16586;48.976;9.584;2023-04-01T09:06:37;11.00;60.30
488;DHT22;16586;48.976;9.584;2023-04-01T09:12:34;10.90;60.60
488;DHT22;16586;48.976;9.584;2023-04-01T09:18:32;10.90;63.70
488;DHT22;16586;48.976;9.584;2023-04-01T09:21:23;10.70;63.10
488;DHT22;16586;48.976;9.584;2023-04-01T09:27:03;10.40;64.60
488;DHT22;16586;48.976;9.584;2023-04-01T09:29:52;10.40;66.10
488;DHT22;16586;48.976;9.584;2023-04-01T09:32:51;10.40;68.00
488;DHT22;16586;48.976;9.584;2023-04-01T09:35:24;10.20;67.20
488;DHT22;16586;48.976;9.584;2023-04-01T09:38:00;10.20;68.10
488;DHT22;16586;48.976;9.584;2023-04-01T09:40:40;10.30;69.70
488;DHT22;16586;48.976;9.584;2023-04-01T09:43:27;10.50;70.90
488;DHT22;16586;48.976;9.584;2023-04-01T09:46:16;10.60;70.80
488;DHT22;16586;48.976;9.584;2023-04-01T09:49:25;10.70;71.30
488;DHT22;16586;48.976;9.584;2023-04-01T09:52:07;10.70;69.90
488;DHT22;16586;48.976;9.584;2023-04-01T10:07:03;10.70;69.00
488;DHT22;16586;48.976;9.584;2023-04-01T10:10:19;10.70;68.20
488;DHT22;16586;48.976;9.584;2023-04-01T10:13:21;10.70;69.00
488;DHT22;16586;48.976;9.584;2023-04-01T10:16:05;10.80;69.10
488;DHT22;16586;48.976;9.584;2023-04-01T10:19:15;10.90;69.20
488;DHT22;16586;48.976;9.584;2023-04-01T10:22:06;10.80;68.20
488;DHT22;16586;48.976;9.584;2023-04-01T10:25:04;10.70;67.60
488;DHT22;16586;48.976;9.584;2023-04-01T10:30:50;10.70;67.20
488;DHT22;16586;48.976;9.584;2023-04-01T10:36:52;10.60;68.00
488;DHT22;16586;48.976;9.584;2023-04-01T10:55:33;10.60;71.30
488;DHT22;16586;48.976;9.584;2023-04-01T10:58:29;10.50;68.80
488;DHT22;16586;48.976;9.584;2023-04-01T11:01:47;10.50;67.60
488;DHT22;16586;48.976;9.584;2023-04-01T11:08:12;10.50;69.60
488;DHT22;16586;48.976;9.584;2023-04-01T11:11:02;10.30;67.60
488;DHT22;16586;48.976;9.584;2023-04-01T11:14:04;10.30;70.10
488;DHT22;16586;48.976;9.584;2023-04-01T11:22:48;10.40;71.50
488;DHT22;16586;48.976;9.584;2023-04-01T11:28:32;10.50;71.10
488;DHT22;16586;48.976;9.584;2023-04-01T11:31:22;10.30;69.40
488;DHT22;16586;48.976;9.584;2023-04-01T11:33:54;10.30;70.40
488;DHT22;16586;48.976;9.584;2023-04-01T11:36:36;10.20;68.60
488;DHT22;16586;48.976;9.584;2023-04-01T11:39:15;10.20;69.00
488;DHT22;16586;48.976;9.584;2023-04-01T11:41:52;10.20;71.10
488;DHT22;16586;48.976;9.584;2023-04-01T11:44:23;10.10;69.30
488;DHT22;16586;48.976;9.584;2023-04-01T11:47:22;10.20;71.30
488;DHT22;16586;48.976;9.584;2023-04-01T11:50:03;10.20;72.30
488;DHT22;16586;48.976;9.584;2023-04-01T11:53:04;10.30;72.30
488;DHT22;16586;48.976;9.584;2023-04-01T11:55:42;10.30;70.80
488;DHT22;16586;48.976;9.584;2023-04-01T11:58:47;10.40;71.40
488;DHT22;16586;48.976;9.584;2023-04-01T12:01:29;10.50;73.10
488;DHT22;16586;48.976;9.584;2023-04-01T12:04:21;10.60;70.90
488;DHT22;16586;48.976;9.584;2023-04-01T12:06:53;10.60;70.40
488;DHT22;16586;48.976;9.584;2023-04-01T12:09:33;10.70;71.60
488;DHT22;16586;48.976;9.584;2023-04-01T12:12:14;10.70;71.70
488;DHT22;16586;48.976;9.584;2023-04-01T12:14:52;10.60;69.70
488;DHT22;16586;48.976;9.584;2023-04-01T12:17:29;10.60;71.40
488;DHT22;16586;48.976;9.584;2023-04-01T12:20:09;10.60;70.50
488;DHT22;16586;48.976;9.584;2023-04-01T12:22:46;10.60;70.40
488;DHT22;16586;48.976;9.584;2023-04-01T12:25:26;10.70;70.30
488;DHT22;16586;48.976;9.584;2023-04-01T12:28:06;10.70;71.70
488;DHT22;16586;48.976;9.584;2023-04-01T12:30:48;10.70;70.50
488;DHT22;16586;48.976;9.584;2023-04-01T12:33:49;10.50;68.80
488;DHT22;16586;48.976;9.584;2023-04-01T12:36:27;10.60;70.00
488;DHT22;16586;48.976;9.584;2023-04-01T12:39:14;10.50;70.10
488;DHT22;16586;48.976;9.584;2023-04-01T12:41:51;10.50;71.20
488;DHT22;16586;48.976;9.584;2023-04-01T12:44:29;10.60;71.50
488;DHT22;16586;48.976;9.584;2023-04-01T12:50:09;10.60;72.50
488;DHT22;16586;48.976;9.584;2023-04-01T12:52:49;10.60;72.70
488;DHT22;16586;48.976;9.584;2023-04-01T12:55:40;10.60;71.30
488;DHT22;16586;48.976;9.584;2023-04-01T12:58:34;10.50;70.90
488;DHT22;16586;48.976;9.584;2023-04-01T13:01:23;10.50;72.20
488;DHT22;16586;48.976;9.584;2023-04-01T13:04:04;10.60;72.80
488;DHT22;16586;48.976;9.584;2023-04-01T13:06:44;10.60;70.70
488;DHT22;16586;48.976;9.584;2023-04-01T13:09:24;10.60;71.40
488;DHT22;16586;48.976;9.584;2023-04-01T13:12:05;10.70;72.00
488;DHT22;16586;48.976;9.584;2023-04-01T13:14:58;10.70;72.80
488;DHT22;16586;48.976;9.584;2023-04-01T13:17:36;10.60;70.70
488;DHT22;16586;48.976;9.584;2023-04-01T13:20:14;10.70;73.50
488;DHT22;16586;48.976;9.584;2023-04-01T13:22:51;10.80;73.90
488;DHT22;16586;48.976;9.584;2023-04-01T13:25:26;10.90;71.70
488;DHT22;16586;48.976;9.584;2023-04-01T13:27:58;10.90;72.30
488;DHT22;16586;48.976;9.584;2023-04-01T13:30:34;10.90;71.90
488;DHT22;16586;48.976;9.584;2023-04-01T13:33:13;10.90;72.40
488;DHT22;16586;48.976;9.584;2023-04-01T13:35:46;10.90;71.40
488;DHT22;16586;48.976;9.584;2023-04-01T13:41:41;10.90;70.80
488;DHT22;16586;48.976;9.584;2023-04-01T13:44:14;10.80;71.10
488;DHT22;16586;48.976;9.584;2023-04-01T13:47:01;10.70;70.90
488;DHT22;16586;48.976;9.584;2023-04-01T13:49:53;10.60;70.40
488;DHT22;16586;48.976;9.584;2023-04-01T13:52:47;10.70;71.40
488;DHT22;16586;48.976;9.584;2023-04-01T13:55:26;10.60;71.20
488;DHT22;16586;48.976;9.584;2023-04-01T13:58:14;10.60;72.30
488;DHT22;16586;48.976;9.584;2023-04-01T14:00:54;10.60;72.50
488;DHT22;16586;48.976;9.584;2023-04-01T14:03:38;10.70;73.50
488;DHT22;16586;48.976;9.584;2023-04-01T14:06:15;10.80;73.00
488;DHT22;16586;48.976;9.584;2023-04-01T14:09:17;10.70;72.20
488;DHT22;16586;48.976;9.584;2023-04-01T14:11:52;10.80;72.00
488;DHT22;16586;48.976;9.584;2023-04-01T14:14:28;10.70;71.10
488;DHT22;16586;48.976;9.584;2023-04-01T14:17:12;10.70;70.80
488;DHT22;16586;48.976;9.584;2023-04-01T14:20:06;10.60;71.10
488;DHT22;16586;48.976;9.584;2023-04-01T14:22:45;10.60;71.40
488;DHT22;16586;48.976;9.584;2023-04-01T14:25:28;10.50;72.00
488;DHT22;16586;48.976;9.584;2023-04-01T14:28:03;10.40;72.00
488;DHT22;16586;48.976;9.584;2023-04-01T14:30:43;10.30;71.90
488;DHT22;16586;48.976;9.584;2023-04-01T14:33:25;10.30;72.90
488;DHT22;16586;48.976;9.584;2023-04-01T14:36:08;10.40;73.20
488;DHT22;16586;48.976;9.584;2023-04-01T14:38:47;10.40;72.30
488;DHT22;16586;48.976;9.584;2023-04-01T14:41:23;10.40;73.20
488;DHT22;16586;48.976;9.584;2023-04-01T14:44:18;10.50;73.80
488;DHT22;16586;48.976;9.584;2023-04-01T14:47:15;10.50;73.30
488;DHT22;16586;48.976;9.584;2023-04-01T14:49:50;10.50;73.40
488;DHT22;16586;48.976;9.584;2023-04-01T14:52:27;10.50;73.30
488;DHT22;16586;48.976;9.584;2023-04-01T14:54:57;10.50;73.20
488;DHT22;16586;48.976;9.584;2023-04-01T14:57:27;10.50;72.70
488;DHT22;16586;48.976;9.584;2023-04-01T15:00:00;10.40;72.00
488;DHT22;16586;48.976;9.584;2023-04-01T15:02:41;10.30;72.40
488;DHT22;16586;48.976;9.584;2023-04-01T15:05:19;10.30;72.00
488;DHT22;16586;48.976;9.584;2023-04-01T15:08:14;10.20;71.80
488;DHT22;16586;48.976;9.584;2023-04-01T15:14:01;10.20;73.30
488;DHT22;16586;48.976;9.584;2023-04-01T15:16:36;10.20;73.70
488;DHT22;16586;48.976;9.584;2023-04-01T15:19:16;10.30;74.20
488;DHT22;16586;48.976;9.584;2023-04-01T15:21:55;10.30;73.50
488;DHT22;16586;48.976;9.584;2023-04-01T15:24:35;10.40;73.30
488;DHT22;16586;48.976;9.584;2023-04-01T15:27:15;10.40;72.60
488;DHT22;16586;48.976;9.584;2023-04-01T15:30:01;10.30;73.10
488;DHT22;16586;48.976;9.584;2023-04-01T15:32:40;10.40;74.10
488;DHT22;16586;48.976;9.584;2023-04-01T15:35:21;10.40;74.70
488;DHT22;16586;48.976;9.584;2023-04-01T15:37:56;10.40;73.90
488;DHT22;16586;48.976;9.584;2023-04-01T15:40:28;10.40;73.20
488;DHT22;16586;48.976;9.584;2023-04-01T15:43:11;10.40;74.10
488;DHT22;16586;48.976;9.584;2023-04-01T15:45:47;10.40;73.60
488;DHT22;16586;48.976;9.584;2023-04-01T15:48:38;10.50;73.80
488;DHT22;16586;48.976;9.584;2023-04-01T15:51:23;10.50;73.90
488;DHT22;16586;48.976;9.584;2023-04-01T15:56:53;10.40;73.80
488;DHT22;16586;48.976;9.584;2023-04-01T15:59:41;10.50;73.00
488;DHT22;16586;48.976;9.584;2023-04-01T16:02:17;10.40;74.10
488;DHT22;16586;48.976;9.584;2023-04-01T16:04:55;10.60;74.30
488;DHT22;16586;48.976;9.584;2023-04-01T16:07:48;10.70;74.60
488;DHT22;16586;48.976;9.584;2023-04-01T16:10:23;10.60;72.80
488;DHT22;16586;48.976;9.584;2023-04-01T16:13:03;10.70;74.00
488;DHT22;16586;48.976;9.584;2023-04-01T16:15:39;10.80;73.70
488;DHT22;16586;48.976;9.584;2023-04-01T16:18:25;10.80;73.20
488;DHT22;16586;48.976;9.584;2023-04-01T16:20:57;10.80;73.60
488;DHT22;16586;48.976;9.584;2023-04-01T16:23:29;11.00;73.30
488;DHT22;16586;48.976;9.584;2023-04-01T16:26:03;11.00;72.70
488;DHT22;16586;48.976;9.584;2023-04-01T16:28:38;10.90;72.20
488;DHT22;16586;48.976;9.584;2023-04-01T16:31:09;10.90;71.70
488;DHT22;16586;48.976;9.584;2023-04-01T16:33:46;10.90;71.70
488;DHT22;16586;48.976;9.584;2023-04-01T16:36:22;10.90;71.60
488;DHT22;16586;48.976;9.584;2023-04-01T16:39:06;10.90;71.10
488;DHT22;16586;48.976;9.584;2023-04-01T16:41:36;10.90;71.10
488;DHT22;16586;48.976;9.584;2023-04-01T16:44:18;10.90;70.60
488;DHT22;16586;48.976;9.584;2023-04-01T16:46:46;10.90;70.70
488;DHT22;16586;48.976;9.584;2023-04-01T16:49:24;10.80;70.90
488;DHT22;16586;48.976;9.584;2023-04-01T16:51:55;10.80;70.90
488;DHT22;16586;48.976;9.584;2023-04-01T16:54:29;10.80;70.30
488;DHT22;16586;48.976;9.584;2023-04-01T16:57:16;10.70;71.30
488;DHT22;16586;48.976;9.584;2023-04-01T17:00:01;10.70;70.80
488;DHT22;16586;48.976;9.584;2023-04-01T17:02:37;10.70;71.20
488;DHT22;16586;48.976;9.584;2023-04-01T17:05:11;10.70;70.30
488;DHT22;16586;48.976;9.584;2023-04-01T17:07:54;10.70;70.80
488;DHT22;16586;48.976;9.584;2023-04-01T17:10:47;10.60;69.00
488;DHT22;16586;48.976;9.584;2023-04-01T17:13:39;10.60;70.40
488;DHT22;16586;48.976;9.584;2023-04-01T17:19:27;10.50;69.30
488;DHT22;16586;48.976;9.584;2023-04-01T17:22:07;10.50;68.90
488;DHT22;16586;48.976;9.584;2023-04-01T17:24:53;10.80;70.60
488;DHT22;16586;48.976;9.584;2023-04-01T17:27:36;10.30;69.20
488;DHT22;16586;48.976;9.584;2023-04-01T17:30:25;10.30;69.90
488;DHT22;16586;48.976;9.584;2023-04-01T17:33:12;10.30;69.80
488;DHT22;16586;48.976;9.584;2023-04-01T17:35:52;10.20;70.30
488;DHT22;16586;48.976;9.584;2023-04-01T17:38:27;10.20;71.40
488;DHT22;16586;48.976;9.584;2023-04-01T17:41:02;10.20;72.50
488;DHT22;16586;48.976;9.584;2023-04-01T17:43:42;10.10;72.20
488;DHT22;16586;48.976;9.584;2023-04-01T17:46:27;10.10;72.90
488;DHT22;16586;48.976;9.584;2023-04-01T17:49:05;10.30;72.80
488;DHT22;16586;48.976;9.584;2023-04-01T17:51:41;10.20;72.70
488;DHT22;16586;48.976;9.584;2023-04-01T17:54:21;10.30;73.10
488;DHT22;16586;48.976;9.584;2023-04-01T17:57:04;10.30;73.20
488;DHT22;16586;48.976;9.584;2023-04-01T17:59:38;10.30;72.80
488;DHT22;16586;48.976;9.584;2023-04-01T18:02:21;10.40;73.40
488;DHT22;16586;48.976;9.584;2023-04-01T18:05:05;10.40;73.20
488;DHT22;16586;48.976;9.584;2023-04-01T18:10:58;10.40;73.30
488;DHT22;16586;48.976;9.584;2023-04-01T18:13:57;10.50;73.00
488;DHT22;16586;48.976;9.584;2023-04-01T18:16:53;10.50;72.50
488;DHT22;16586;48.976;9.584;2023-04-01T18:19:29;10.50;72.30
488;DHT22;16586;48.976;9.584;2023-04-01T18:22:04;10.50;71.40